Time;durP1;ratioP1;P1;durP2;ratioP2;P2;SDS_P1;SDS_P2;PMS_P1;PMS_P2;Temp;Humidity;BMP_temperature;BMP_pressure;BME280_temperature;BME280_humidity;BME280_pressure;Samples;Min_cycle;Max_cycle;Signal;HPM_P1;HPM_P2
2021/11/11 00:00:14;;;;;;;0.03;0.03;;;8.60;99.90;;;;;;5087239;28;20406;-86
2021/11/11 00:02:42;;;;;;;0.10;0.10;;;8.60;99.90;;;;;;5104338;28;20497;-79
2021/11/11 00:05:09;;;;;;;0.30;0.30;;;8.60;99.90;;;;;;5104128;28;20127;-79
2021/11/11 00:07:39;;;;;;;0.10;0.10;;;8.60;99.90;;;;;;5053971;28;20102;-79
2021/11/11 00:10:12;;;;;;;0.20;0.15;;;8.70;99.90;;;;;;5071021;28;20048;-79
2021/11/11 00:12:38;;;;;;;0.10;0.10;;;8.60;99.90;;;;;;5086760;28;20041;-79
2021/11/11 00:15:09;;;;;;;0.10;0.10;;;8.60;99.90;;;;;;5087265;28;20520;-85
2021/11/11 00:17:36;;;;;;;0.10;0.10;;;8.60;99.90;;;;;;5104313;28;20037;-85
2021/11/11 00:20:04;;;;;;;0.00;0.00;;;8.60;99.90;;;;;;5087259;28;20478;-79
2021/11/11 00:22:32;;;;;;;0.00;0.00;;;8.60;99.90;;;;;;5070263;28;20489;-84
2021/11/11 00:24:58;;;;;;;0.10;0.10;;;8.60;99.90;;;;;;5087539;28;20098;-79
2021/11/11 00:27:25;;;;;;;0.00;0.00;;;8.60;99.90;;;;;;5053525;28;20041;-80
2021/11/11 00:29:52;;;;;;;0.10;0.10;;;8.60;99.90;;;;;;5053956;28;20037;-79
2021/11/11 00:32:19;;;;;;;0.10;0.10;;;8.60;99.90;;;;;;5087030;28;20044;-85
2021/11/11 00:34:51;;;;;;;0.20;0.20;;;8.50;99.90;;;;;;5119926;28;20051;-86
2021/11/11 00:37:19;;;;;;;0.10;0.10;;;8.60;99.90;;;;;;5088333;28;20087;-79
2021/11/11 00:39:47;;;;;;;0.15;0.13;;;8.60;99.90;;;;;;5086627;28;20044;-79
2021/11/11 00:42:17;;;;;;;0.00;0.00;;;8.60;99.90;;;;;;5086642;28;20048;-86
2021/11/11 00:44:45;;;;;;;0.20;0.20;;;8.50;99.90;;;;;;5103208;28;20094;-80
2021/11/11 00:47:12;;;;;;;0.00;0.00;;;8.60;99.90;;;;;;5070705;28;20056;-80
2021/11/11 00:49:40;;;;;;;0.10;0.10;;;8.50;99.90;;;;;;5053744;28;20048;-85
2021/11/11 00:52:07;;;;;;;0.20;0.10;;;8.60;99.90;;;;;;5053807;28;20475;-79
2021/11/11 00:54:35;;;;;;;0.10;0.10;;;8.50;99.90;;;;;;5070051;28;20072;-79
2021/11/11 00:57:02;;;;;;;0.10;0.10;;;8.50;99.90;;;;;;5053634;28;20123;-79
2021/11/11 00:59:29;;;;;;;0.30;0.20;;;8.50;99.90;;;;;;5085849;28;20675;-80
2021/11/11 01:01:55;;;;;;;0.10;0.10;;;8.50;99.90;;;;;;5053465;28;20191;-86
2021/11/11 01:04:22;;;;;;;0.08;0.08;;;8.60;99.90;;;;;;5086219;28;20448;-79
2021/11/11 01:06:49;;;;;;;0.10;0.10;;;8.60;99.90;;;;;;5052971;28;20131;-86
2021/11/11 01:09:16;;;;;;;0.10;0.10;;;8.60;99.90;;;;;;5070320;28;20131;-79
2021/11/11 01:11:43;;;;;;;0.08;0.08;;;8.60;99.90;;;;;;5086399;28;20561;-84
2021/11/11 01:14:10;;;;;;;0.00;0.00;;;8.60;99.90;;;;;;5086600;28;20049;-85
2021/11/11 01:16:37;;;;;;;0.10;0.10;;;8.60;99.90;;;;;;5086487;28;20043;-85
2021/11/11 01:19:03;;;;;;;0.10;0.10;;;8.60;99.90;;;;;;5086494;28;20751;-79
2021/11/11 01:21:30;;;;;;;0.20;0.20;;;8.50;99.90;;;;;;5119573;28;20047;-85
2021/11/11 01:23:57;;;;;;;0.25;0.25;;;8.60;99.90;;;;;;5053281;28;20131;-79
2021/11/11 01:26:23;;;;;;;0.10;0.10;;;8.50;99.90;;;;;;5053140;28;20048;-86
2021/11/11 01:28:50;;;;;;;0.08;0.08;;;8.60;99.90;;;;;;5086266;28;20128;-85
2021/11/11 01:31:17;;;;;;;0.10;0.10;;;8.60;99.90;;;;;;5070012;28;20040;-86
2021/11/11 01:33:45;;;;;;;0.22;0.20;;;8.60;99.90;;;;;;5052931;28;20041;-86
2021/11/11 01:36:12;;;;;;;0.00;0.00;;;8.60;99.90;;;;;;5086083;28;20040;-79
2021/11/11 01:38:38;;;;;;;0.08;0.08;;;8.60;99.90;;;;;;5069226;28;20037;-79
2021/11/11 01:41:06;;;;;;;0.10;0.10;;;8.50;99.90;;;;;;5086263;28;20037;-79
2021/11/11 01:43:33;;;;;;;0.00;0.00;;;8.80;99.90;;;;;;5068933;28;20405;-80
2021/11/11 01:45:59;;;;;;;0.05;0.05;;;8.50;99.90;;;;;;5069337;28;20045;-86
2021/11/11 01:48:27;;;;;;;0.10;0.10;;;8.70;99.90;;;;;;5085753;28;20041;-86
2021/11/11 01:50:54;;;;;;;0.00;0.00;;;8.60;99.90;;;;;;5068900;28;20052;-79
2021/11/11 01:53:22;;;;;;;0.00;0.00;;;8.60;99.90;;;;;;5110853;28;20493;-86
2021/11/11 01:55:50;;;;;;;0.88;0.22;;;8.60;99.90;;;;;;5083833;28;20510;-86
2021/11/11 01:58:17;;;;;;;0.00;0.00;;;8.60;99.90;;;;;;5118139;28;20037;-84
2021/11/11 02:00:57;;;;;;;0.10;0.10;;;8.60;99.90;;;;;;5069350;28;20052;-80
2021/11/11 02:03:24;;;;;;;0.05;0.05;;;8.60;99.90;;;;;;5105003;28;20566;-85
2021/11/11 02:05:51;;;;;;;0.00;0.00;;;8.60;99.90;;;;;;5105797;28;20044;-86
2021/11/11 02:08:19;;;;;;;0.13;0.13;;;8.60;99.90;;;;;;5123118;28;20036;-80
2021/11/11 02:10:46;;;;;;;0.00;0.00;;;8.60;99.90;;;;;;5123334;28;20037;-86
2021/11/11 02:13:13;;;;;;;0.08;0.08;;;8.60;99.90;;;;;;5126262;28;20459;-80
2021/11/11 02:15:40;;;;;;;0.00;0.00;;;8.60;99.90;;;;;;5109056;28;20484;-86
2021/11/11 02:18:09;;;;;;;0.00;0.00;;;8.60;99.90;;;;;;5109625;28;20047;-85
2021/11/11 02:20:39;;;;;;;0.00;0.00;;;8.60;99.90;;;;;;5109077;28;20044;-80
2021/11/11 02:23:11;;;;;;;0.00;0.00;;;8.60;99.90;;;;;;5109238;28;20086;-87
2021/11/11 02:25:39;;;;;;;0.10;0.10;;;8.60;99.90;;;;;;5108633;28;20044;-80
2021/11/11 02:28:12;;;;;;;0.10;0.10;;;8.60;99.90;;;;;;5109195;28;20036;-80
2021/11/11 02:30:41;;;;;;;0.00;0.00;;;8.60;99.90;;;;;;5125666;28;20120;-86
2021/11/11 02:33:18;;;;;;;0.10;0.10;;;8.60;99.90;;;;;;5126092;28;20076;-86
2021/11/11 02:35:46;;;;;;;0.03;0.03;;;8.60;99.90;;;;;;5109164;28;20037;-86
2021/11/11 02:38:13;;;;;;;0.05;0.05;;;8.60;99.90;;;;;;5109350;28;20083;-80
2021/11/11 02:40:41;;;;;;;0.00;0.00;;;8.70;99.90;;;;;;5125653;28;20032;-86
2021/11/11 02:43:10;;;;;;;0.10;0.10;;;8.60;99.90;;;;;;5108754;28;20044;-87
2021/11/11 02:45:40;;;;;;;0.10;0.10;;;8.60;99.90;;;;;;5126137;28;20400;-80
2021/11/11 02:48:09;;;;;;;0.10;0.10;;;8.60;99.90;;;;;;5125661;28;20041;-87
2021/11/11 02:50:36;;;;;;;0.10;0.10;;;8.60;99.90;;;;;;5125592;28;20032;-86
2021/11/11 02:53:03;;;;;;;0.00;0.00;;;8.60;99.90;;;;;;5125226;28;20385;-80
2021/11/11 02:55:30;;;;;;;0.10;0.10;;;8.60;99.90;;;;;;5108854;28;20139;-86
2021/11/11 02:57:59;;;;;;;0.10;0.10;;;8.60;99.90;;;;;;5091535;28;20040;-80
2021/11/11 03:00:40;;;;;;;0.05;0.05;;;8.50;99.90;;;;;;5108248;28;20131;-86
2021/11/11 03:03:07;;;;;;;0.00;0.00;;;8.60;99.90;;;;;;5091796;28;20409;-80
2021/11/11 03:05:35;;;;;;;0.00;0.00;;;8.50;99.90;;;;;;5125314;28;20044;-86
2021/11/11 03:08:04;;;;;;;0.40;0.40;;;8.50;99.90;;;;;;5125506;28;20048;-80
2021/11/11 03:10:31;;;;;;;0.10;0.10;;;8.50;99.90;;;;;;5125126;28;20040;-86
2021/11/11 03:13:00;;;;;;;0.00;0.00;;;8.50;99.90;;;;;;5108946;28;20047;-85
2021/11/11 03:15:28;;;;;;;0.10;0.10;;;8.50;99.90;;;;;;5108748;28;20385;-79
2021/11/11 03:17:56;;;;;;;0.10;0.10;;;8.50;99.90;;;;;;5124736;28;20409;-79
2021/11/11 03:20:22;;;;;;;0.10;0.10;;;8.50;99.90;;;;;;5108338;28;20044;-79
2021/11/11 03:22:49;;;;;;;0.00;0.00;;;8.50;99.90;;;;;;5124595;28;20051;-80
2021/11/11 03:25:20;;;;;;;0.10;0.10;;;8.40;99.90;;;;;;5091882;28;20051;-79
2021/11/11 03:27:48;;;;;;;0.00;0.00;;;8.40;99.90;;;;;;5124917;28;20556;-80
2021/11/11 03:30:17;;;;;;;0.10;0.10;;;8.40;99.90;;;;;;5124887;28;20519;-85
2021/11/11 03:32:45;;;;;;;0.10;0.10;;;8.40;99.90;;;;;;5124516;28;20043;-79
2021/11/11 03:35:13;;;;;;;0.10;0.10;;;8.50;99.90;;;;;;5107989;28;20041;-79
2021/11/11 03:37:41;;;;;;;0.00;0.00;;;8.40;99.90;;;;;;5124980;28;20058;-79
2021/11/11 03:40:11;;;;;;;0.00;0.00;;;8.40;99.90;;;;;;5107446;28;20036;-79
2021/11/11 03:42:38;;;;;;;0.03;0.03;;;8.40;99.90;;;;;;5141892;28;20079;-79
2021/11/11 03:45:07;;;;;;;0.10;0.10;;;8.40;99.90;;;;;;5123993;28;20125;-85
2021/11/11 03:47:34;;;;;;;0.00;0.00;;;8.40;99.90;;;;;;5124420;28;20045;-81
2021/11/11 03:50:01;;;;;;;0.10;0.10;;;8.40;99.90;;;;;;5124574;28;20032;-86
2021/11/11 03:52:28;;;;;;;0.00;0.00;;;8.40;99.90;;;;;;5107503;28;20102;-79
2021/11/11 03:54:55;;;;;;;0.00;0.00;;;8.40;99.90;;;;;;5090842;28;20032;-79
2021/11/11 03:57:22;;;;;;;0.00;0.00;;;8.40;99.90;;;;;;5107649;28;20036;-79
2021/11/11 03:59:49;;;;;;;0.00;0.00;;;8.50;99.90;;;;;;5107276;28;20489;-86
2021/11/11 04:02:16;;;;;;;0.10;0.10;;;8.50;99.90;;;;;;5107355;28;20646;-86
2021/11/11 04:04:42;;;;;;;0.10;0.10;;;8.50;99.90;;;;;;5125094;28;20044;-80
2021/11/11 04:07:10;;;;;;;0.03;0.03;;;8.50;99.90;;;;;;5106831;28;20515;-86
2021/11/11 04:09:36;;;;;;;0.10;0.10;;;8.50;99.90;;;;;;5124400;28;20047;-86
2021/11/11 04:12:04;;;;;;;0.00;0.00;;;8.50;99.90;;;;;;5090218;28;20405;-80
2021/11/11 04:14:32;;;;;;;0.10;0.10;;;8.50;99.90;;;;;;5124080;28;20048;-86
2021/11/11 04:16:59;;;;;;;0.10;0.10;;;8.50;99.90;;;;;;5123629;28;20639;-80
2021/11/11 04:19:26;;;;;;;0.47;0.47;;;8.50;99.90;;;;;;5107112;28;20052;-86
2021/11/11 04:21:53;;;;;;;0.10;0.10;;;8.50;99.90;;;;;;5090007;28;20090;-85
2021/11/11 04:24:20;;;;;;;0.08;0.08;;;8.50;99.90;;;;;;5107302;28;20045;-86
2021/11/11 04:26:53;;;;;;;0.08;0.08;;;8.50;99.90;;;;;;5107144;28;20048;-80
2021/11/11 04:29:24;;;;;;;0.10;0.10;;;8.50;99.90;;;;;;5124208;28;20033;-80
2021/11/11 04:32:01;;;;;;;0.10;0.10;;;8.50;99.90;;;;;;5123690;28;20032;-86
2021/11/11 04:34:32;;;;;;;0.10;0.10;;;8.50;99.90;;;;;;5104731;28;20110;-80
2021/11/11 04:40:15;;;;;;;0.52;0.17;;;8.70;99.90;;;;;;5140732;28;20044;-81
2021/11/11 04:45:39;;;;;;;0.10;0.10;;;8.60;99.90;;;;;;5140112;28;20048;-80
2021/11/11 04:48:23;;;;;;;0.13;0.13;;;8.60;99.90;;;;;;5119470;28;20095;-80
2021/11/11 05:02:05;;;;;;;0.08;0.08;;;8.60;99.90;;;;;;5140417;28;20060;-80
2021/11/11 05:04:32;;;;;;;0.00;0.00;;;8.70;99.90;;;;;;5089649;28;20076;-86
2021/11/11 05:06:59;;;;;;;0.00;0.00;;;8.60;99.90;;;;;;5089449;28;20043;-80
2021/11/11 05:09:26;;;;;;;0.00;0.00;;;8.60;99.90;;;;;;5123371;28;20044;-80
2021/11/11 05:11:52;;;;;;;0.08;0.08;;;8.60;99.90;;;;;;5123245;28;20040;-86
2021/11/11 05:14:20;;;;;;;0.10;0.10;;;8.60;99.90;;;;;;5106198;28;20141;-86
2021/11/11 05:16:46;;;;;;;0.00;0.00;;;8.60;99.90;;;;;;5123135;28;20119;-86
2021/11/11 05:19:13;;;;;;;0.00;0.00;;;8.60;99.90;;;;;;5089307;28;20123;-86
2021/11/11 05:21:40;;;;;;;0.05;0.05;;;8.60;99.90;;;;;;5106566;28;20047;-80
2021/11/11 05:24:07;;;;;;;0.00;0.00;;;8.80;99.90;;;;;;5106176;28;20079;-86
2021/11/11 05:26:33;;;;;;;0.65;0.55;;;8.60;99.90;;;;;;5106210;28;20044;-80
2021/11/11 05:29:01;;;;;;;0.00;0.00;;;8.60;99.90;;;;;;5106325;28;20051;-86
2021/11/11 05:31:27;;;;;;;0.38;0.30;;;8.60;99.90;;;;;;5106440;28;20036;-80
2021/11/11 05:33:54;;;;;;;1.10;0.25;;;8.60;99.90;;;;;;5106356;28;20451;-87
2021/11/11 05:36:21;;;;;;;0.17;0.13;;;8.60;99.90;;;;;;5106254;28;20051;-86
2021/11/11 05:38:48;;;;;;;0.00;0.00;;;8.60;99.90;;;;;;5106086;28;20128;-85
2021/11/11 05:41:14;;;;;;;0.00;0.00;;;8.60;99.90;;;;;;5105875;28;20044;-86
2021/11/11 05:43:41;;;;;;;0.10;0.10;;;8.60;99.90;;;;;;5122920;28;20047;-86
2021/11/11 05:46:08;;;;;;;0.15;0.10;;;8.60;99.90;;;;;;5090567;28;20079;-86
2021/11/11 05:48:34;;;;;;;0.00;0.00;;;8.60;99.90;;;;;;5109854;28;20040;-85
2021/11/11 05:51:01;;;;;;;0.10;0.10;;;8.60;99.90;;;;;;5126876;28;20047;-86
2021/11/11 05:53:28;;;;;;;0.00;0.00;;;8.50;99.90;;;;;;5109499;28;20041;-86
2021/11/11 05:55:55;;;;;;;0.05;0.05;;;8.50;99.90;;;;;;5109949;28;20033;-80
2021/11/11 05:58:22;;;;;;;0.00;0.00;;;8.50;99.90;;;;;;5109009;28;20093;-80
2021/11/11 06:00:49;;;;;;;0.08;0.08;;;8.50;99.90;;;;;;5095554;28;20091;-80
2021/11/11 06:03:16;;;;;;;0.00;0.00;;;8.60;99.90;;;;;;5099133;28;20075;-86
2021/11/11 06:05:43;;;;;;;0.00;0.00;;;8.50;99.90;;;;;;5120144;28;20085;-86
2021/11/11 06:08:10;;;;;;;0.00;0.00;;;8.50;99.90;;;;;;5077028;28;20041;-80
2021/11/11 06:10:37;;;;;;;0.10;0.10;;;8.50;99.90;;;;;;5060206;28;20068;-80
2021/11/11 06:13:03;;;;;;;0.00;0.00;;;8.50;99.90;;;;;;5076741;28;20137;-86
2021/11/11 06:15:30;;;;;;;0.00;0.00;;;8.50;99.90;;;;;;5094661;28;20044;-85
2021/11/11 06:17:59;;;;;;;0.00;0.00;;;8.50;99.90;;;;;;5077045;28;20037;-84
2021/11/11 06:20:33;;;;;;;0.08;0.08;;;8.50;99.90;;;;;;5109153;28;20052;-85
2021/11/11 06:23:00;;;;;;;0.10;0.10;;;8.50;99.90;;;;;;5093041;28;20037;-85
2021/11/11 06:25:27;;;;;;;0.10;0.10;;;8.50;99.90;;;;;;5092478;28;20481;-79
2021/11/11 06:27:54;;;;;;;0.00;0.00;;;8.50;99.90;;;;;;5092684;28;20064;-85
2021/11/11 06:30:21;;;;;;;0.20;0.20;;;8.50;99.90;;;;;;5092323;28;20035;-79
2021/11/11 06:32:48;;;;;;;0.30;0.17;;;8.50;99.90;;;;;;5075837;28;20484;-85
2021/11/11 06:35:14;;;;;;;0.10;0.10;;;8.50;99.90;;;;;;5059320;28;20498;-85
2021/11/11 06:37:41;;;;;;;0.10;0.10;;;8.50;99.90;;;;;;5076167;28;20039;-79
2021/11/11 06:40:08;;;;;;;0.00;0.00;;;8.50;99.90;;;;;;5075995;28;20086;-86
2021/11/11 06:42:35;;;;;;;0.10;0.10;;;8.50;99.90;;;;;;5092307;28;20427;-79
2021/11/11 06:45:09;;;;;;;0.10;0.10;;;8.50;99.90;;;;;;5109138;28;20079;-80
2021/11/11 06:47:37;;;;;;;0.10;0.10;;;8.50;99.90;;;;;;5077114;28;20045;-80
2021/11/11 06:50:05;;;;;;;0.10;0.10;;;8.50;99.90;;;;;;5075870;28;20048;-85
2021/11/11 06:52:32;;;;;;;0.10;0.10;;;8.50;99.90;;;;;;5075309;28;20040;-85
2021/11/11 06:54:59;;;;;;;0.10;0.10;;;8.50;99.90;;;;;;5091735;28;20485;-85
2021/11/11 06:57:26;;;;;;;0.10;0.10;;;8.50;99.90;;;;;;5070312;28;20049;-79
2021/11/11 06:59:52;;;;;;;0.10;0.10;;;8.50;99.90;;;;;;5067620;28;20081;-79
2021/11/11 07:02:19;;;;;;;0.00;0.00;;;8.50;99.90;;;;;;5058593;28;20045;-80
2021/11/11 07:04:46;;;;;;;0.22;0.20;;;8.50;99.90;;;;;;5072289;28;20037;-85
2021/11/11 07:07:13;;;;;;;0.03;0.03;;;8.50;99.90;;;;;;5104837;28;20049;-86
2021/11/11 07:09:40;;;;;;;0.15;0.15;;;8.50;99.90;;;;;;5088445;28;20044;-79
2021/11/11 07:12:07;;;;;;;0.00;0.00;;;8.50;99.90;;;;;;5088681;28;20040;-85
2021/11/11 07:14:34;;;;;;;0.03;0.03;;;8.50;99.90;;;;;;5109582;28;20726;-79
2021/11/11 07:17:01;;;;;;;0.00;0.00;;;8.60;99.90;;;;;;5092982;28;20043;-85
2021/11/11 07:19:28;;;;;;;0.10;0.10;;;8.60;99.90;;;;;;5092416;28;20040;-80
2021/11/11 07:21:54;;;;;;;0.10;0.10;;;8.50;99.90;;;;;;5092741;28;20397;-84
2021/11/11 07:24:21;;;;;;;0.10;0.10;;;8.60;99.90;;;;;;5087896;28;20029;-78
2021/11/11 07:26:48;;;;;;;0.00;0.00;;;8.60;99.90;;;;;;5087921;28;20405;-78
2021/11/11 07:29:14;;;;;;;0.03;0.03;;;8.60;99.90;;;;;;5104477;28;20052;-85
2021/11/11 07:31:43;;;;;;;0.00;0.00;;;8.60;99.90;;;;;;5061165;28;20033;-84
2021/11/11 07:34:10;;;;;;;0.00;0.00;;;8.60;99.90;;;;;;5099356;28;20045;-81
2021/11/11 07:36:38;;;;;;;0.00;0.00;;;8.60;99.90;;;;;;5104424;28;20036;-79
2021/11/11 07:39:05;;;;;;;0.15;0.13;;;8.70;99.90;;;;;;5125072;28;20071;-79
2021/11/11 07:41:33;;;;;;;0.10;0.10;;;8.70;99.90;;;;;;5115750;28;20045;-85
2021/11/11 07:44:00;;;;;;;0.00;0.00;;;8.70;99.90;;;;;;5101444;28;20449;-79
2021/11/11 07:46:26;;;;;;;0.10;0.10;;;8.70;99.90;;;;;;5107315;28;20072;-85
2021/11/11 07:48:53;;;;;;;0.10;0.10;;;8.70;99.90;;;;;;5091327;28;20076;-79
2021/11/11 07:51:20;;;;;;;0.10;0.10;;;8.80;99.90;;;;;;5091063;28;20102;-86
2021/11/11 07:53:46;;;;;;;0.10;0.10;;;8.70;99.90;;;;;;5107679;28;20507;-85
2021/11/11 07:56:13;;;;;;;0.10;0.10;;;8.70;99.90;;;;;;5105964;28;20533;-81
2021/11/11 07:58:40;;;;;;;0.10;0.10;;;8.70;99.90;;;;;;5053702;28;20174;-79
2021/11/11 08:01:07;;;;;;;0.17;0.17;;;8.80;99.90;;;;;;5087287;28;20049;-84
2021/11/11 08:03:34;;;;;;;0.00;0.00;;;8.80;99.90;;;;;;5086902;28;20041;-85
2021/11/11 08:06:00;;;;;;;0.10;0.10;;;8.80;99.90;;;;;;5070572;28;20044;-85
2021/11/11 08:08:28;;;;;;;0.00;0.00;;;8.70;99.90;;;;;;5087192;28;20417;-84
2021/11/11 08:10:57;;;;;;;0.35;0.35;;;8.90;99.90;;;;;;5123745;28;20049;-86
2021/11/11 08:13:23;;;;;;;0.00;0.00;;;8.80;99.90;;;;;;5106491;28;20044;-79
2021/11/11 08:15:50;;;;;;;0.00;0.00;;;8.80;99.90;;;;;;5105435;28;20051;-79
2021/11/11 08:18:17;;;;;;;0.00;0.00;;;8.80;99.90;;;;;;5072713;28;20428;-80
2021/11/11 08:20:43;;;;;;;0.00;0.00;;;8.80;99.90;;;;;;5084616;28;20824;-80
2021/11/11 08:23:10;;;;;;;0.05;0.05;;;8.90;99.90;;;;;;5123948;28;20133;-80
2021/11/11 08:25:37;;;;;;;0.00;0.00;;;8.90;99.90;;;;;;5089940;28;20066;-84
2021/11/11 08:28:04;;;;;;;0.25;0.15;;;8.90;99.90;;;;;;5081356;28;20029;-79
2021/11/11 08:30:31;;;;;;;0.25;0.20;;;8.90;99.90;;;;;;5112662;28;20186;-80
2021/11/11 08:32:58;;;;;;;0.10;0.10;;;8.90;99.90;;;;;;5089847;28;20040;-85
2021/11/11 08:35:25;;;;;;;0.10;0.10;;;9.00;99.90;;;;;;5072020;28;20082;-85
2021/11/11 08:37:53;;;;;;;0.08;0.08;;;9.10;99.90;;;;;;5093120;28;20040;-80
2021/11/11 08:40:21;;;;;;;0.05;0.05;;;9.00;99.90;;;;;;5088627;28;20170;-84
2021/11/11 08:42:51;;;;;;;0.03;0.03;;;9.00;99.90;;;;;;5063016;28;20048;-85
2021/11/11 08:45:18;;;;;;;0.17;0.17;;;9.00;99.90;;;;;;5083000;28;20072;-85
2021/11/11 08:47:45;;;;;;;0.10;0.10;;;9.10;99.90;;;;;;5073157;28;20125;-86
2021/11/11 08:50:13;;;;;;;0.00;0.00;;;9.10;99.90;;;;;;5106731;28;20072;-79
2021/11/11 08:52:44;;;;;;;0.20;0.20;;;9.10;99.90;;;;;;5122975;28;20044;-85
2021/11/11 08:55:19;;;;;;;0.10;0.10;;;9.20;99.90;;;;;;5140054;28;20094;-85
2021/11/11 08:57:46;;;;;;;0.20;0.20;;;9.20;99.90;;;;;;5105891;28;20465;-86
2021/11/11 09:00:20;;;;;;;0.20;0.20;;;9.30;99.90;;;;;;5100389;28;20128;-85
2021/11/11 09:02:50;;;;;;;0.00;0.00;;;9.30;99.90;;;;;;5089901;28;20043;-80
2021/11/11 09:05:18;;;;;;;0.00;0.00;;;9.30;99.90;;;;;;5089883;28;20520;-84
2021/11/11 09:07:45;;;;;;;0.10;0.10;;;9.30;99.90;;;;;;5089652;28;20063;-79
2021/11/11 09:10:18;;;;;;;1.88;0.20;;;9.30;99.90;;;;;;5090206;28;20040;-86
2021/11/11 09:12:47;;;;;;;0.10;0.10;;;9.40;99.90;;;;;;5089349;28;20040;-85
2021/11/11 09:15:15;;;;;;;0.10;0.10;;;9.40;99.90;;;;;;5073081;28;20552;-80
2021/11/11 09:17:43;;;;;;;0.32;0.30;;;9.40;99.90;;;;;;5089317;28;20496;-81
2021/11/11 09:20:12;;;;;;;0.10;0.10;;;9.40;99.90;;;;;;5074994;28;20047;-82
2021/11/11 09:22:39;;;;;;;0.10;0.10;;;9.40;99.90;;;;;;5093849;28;20051;-85
2021/11/11 09:25:08;;;;;;;0.03;0.03;;;9.30;99.90;;;;;;5094177;28;20037;-82
2021/11/11 09:27:37;;;;;;;0.08;0.08;;;9.40;99.90;;;;;;5093315;28;20075;-83
2021/11/11 09:30:08;;;;;;;0.10;0.10;;;9.50;99.90;;;;;;5076712;28;20036;-80
2021/11/11 09:32:35;;;;;;;0.10;0.10;;;9.50;99.90;;;;;;5093752;28;20041;-82
2021/11/11 09:35:03;;;;;;;0.03;0.03;;;9.50;99.90;;;;;;5110021;28;20033;-82
2021/11/11 09:37:30;;;;;;;0.00;0.00;;;9.50;99.90;;;;;;5127055;28;20538;-85
2021/11/11 09:39:57;;;;;;;0.10;0.10;;;9.50;99.90;;;;;;5093371;28;20131;-82
2021/11/11 09:42:26;;;;;;;0.10;0.10;;;9.50;99.90;;;;;;5109702;28;20044;-82
2021/11/11 09:44:53;;;;;;;0.00;0.00;;;9.60;99.90;;;;;;5109188;28;20040;-81
2021/11/11 09:47:20;;;;;;;0.10;0.10;;;9.70;99.90;;;;;;5109574;28;20041;-86
2021/11/11 09:49:47;;;;;;;0.20;0.17;;;9.70;99.90;;;;;;5126171;28;20127;-86
2021/11/11 09:52:14;;;;;;;0.00;0.00;;;9.70;99.90;;;;;;5109619;28;20127;-82
2021/11/11 09:59:55;;;;;;;;;;;9.70;99.90;;;;;;5123927;28;20186;-86
2021/11/11 10:02:22;;;;;;;0.10;0.10;;;9.80;99.90;;;;;;5109478;28;20373;-86
2021/11/11 10:04:49;;;;;;;0.10;0.10;;;9.80;99.90;;;;;;5125970;28;20041;-82
2021/11/11 10:07:16;;;;;;;0.00;0.00;;;9.80;99.90;;;;;;5092646;28;20415;-87
2021/11/11 10:09:47;;;;;;;0.00;0.00;;;9.70;99.90;;;;;;5107556;28;20094;-86
2021/11/11 10:12:18;;;;;;;0.08;0.08;;;9.80;99.90;;;;;;5076091;28;20468;-81
2021/11/11 10:14:47;;;;;;;0.10;0.10;;;9.80;99.90;;;;;;5091813;28;20515;-87
2021/11/11 10:17:17;;;;;;;0.25;0.08;;;9.90;99.90;;;;;;5072439;28;20033;-82
2021/11/11 10:19:48;;;;;;;0.08;0.08;;;9.90;99.90;;;;;;5108407;28;20037;-82
2021/11/11 10:22:28;;;;;;;0.20;0.20;;;10.00;99.90;;;;;;5092731;28;20040;-82
2021/11/11 10:25:01;;;;;;;0.00;0.00;;;10.00;99.90;;;;;;5076158;28;20083;-81
2021/11/11 10:30:22;;;;;;;0.10;0.10;;;10.10;99.90;;;;;;5108837;28;20052;-81
2021/11/11 10:32:55;;;;;;;0.10;0.10;;;10.10;99.90;;;;;;5090502;28;20033;-84
2021/11/11 10:35:27;;;;;;;0.45;0.20;;;10.20;99.90;;;;;;5092016;28;20090;-86
2021/11/11 10:37:59;;;;;;;0.00;0.00;;;10.20;99.90;;;;;;5107708;28;20044;-81
2021/11/11 10:40:30;;;;;;;0.00;0.00;;;10.30;99.90;;;;;;5141870;28;20033;-81
2021/11/11 10:42:57;;;;;;;0.00;0.00;;;10.40;99.90;;;;;;5124752;28;20123;-81
2021/11/11 10:45:26;;;;;;;0.00;0.00;;;10.40;99.90;;;;;;5091942;28;20039;-85
2021/11/11 10:47:56;;;;;;;0.00;0.00;;;10.40;99.90;;;;;;5090747;28;20036;-85
2021/11/11 10:50:26;;;;;;;0.10;0.10;;;10.40;99.90;;;;;;5108659;28;20079;-86
2021/11/11 10:52:55;;;;;;;0.10;0.10;;;10.40;99.90;;;;;;5110494;28;20048;-81
2021/11/11 10:55:26;;;;;;;0.20;0.20;;;10.50;99.90;;;;;;5123996;28;20035;-85
2021/11/11 10:57:58;;;;;;;0.00;0.00;;;10.50;99.90;;;;;;5104590;28;20095;-81
2021/11/11 11:00:33;;;;;;;0.10;0.10;;;10.50;99.90;;;;;;5116733;28;20040;-81
2021/11/11 11:03:00;;;;;;;;;;;10.50;99.90;;;;;;5109143;28;20041;-81
2021/11/11 11:05:43;;;;;;;0.00;0.00;;;10.60;99.90;;;;;;5092592;28;19924;-81
2021/11/11 11:08:12;;;;;;;0.00;0.00;;;10.60;99.90;;;;;;5075894;28;20045;-85
2021/11/11 11:10:54;;;;;;;0.00;0.00;;;10.60;99.90;;;;;;5116089;28;20041;-86
2021/11/11 11:13:26;;;;;;;0.00;0.00;;;10.60;99.90;;;;;;5104666;28;20941;-86
2021/11/11 11:16:02;;;;;;;0.30;0.25;;;10.60;99.90;;;;;;5104493;28;20036;-81
2021/11/11 11:18:33;;;;;;;0.00;0.00;;;10.60;99.90;;;;;;5103981;28;20083;-86
2021/11/11 11:21:22;;;;;;;0.03;0.03;;;10.60;99.90;;;;;;5087922;28;20037;-85
2021/11/11 11:23:56;;;;;;;0.00;0.00;;;10.60;99.90;;;;;;5104155;28;20123;-81
2021/11/11 11:26:24;;;;;;;0.00;0.00;;;10.60;99.90;;;;;;5104181;28;20048;-81
2021/11/11 11:29:01;;;;;;;0.10;0.10;;;10.50;99.90;;;;;;5104394;28;20037;-81
2021/11/11 11:31:40;;;;;;;0.00;0.00;;;10.60;99.90;;;;;;5070849;28;20052;-80
2021/11/11 11:34:09;;;;;;;0.10;0.10;;;10.50;99.90;;;;;;5104311;28;20048;-85
2021/11/11 11:36:52;;;;;;;0.10;0.10;;;10.60;99.90;;;;;;5104168;28;20055;-84
2021/11/11 11:39:30;;;;;;;0.10;0.10;;;10.60;99.90;;;;;;5103748;28;20179;-82
2021/11/11 11:42:03;;;;;;;0.00;0.00;;;10.50;99.90;;;;;;5086829;28;20048;-80
2021/11/11 11:44:51;;;;;;;0.03;0.03;;;10.60;99.90;;;;;;5087598;28;20055;-85
2021/11/11 11:47:25;;;;;;;0.10;0.10;;;10.50;99.90;;;;;;5103927;28;20045;-79
2021/11/11 11:49:57;;;;;;;0.20;0.20;;;10.50;99.90;;;;;;5103671;28;20794;-80
2021/11/11 11:52:28;;;;;;;0.00;0.00;;;10.50;99.90;;;;;;5070367;28;20082;-84
2021/11/11 11:55:02;;;;;;;0.22;0.20;;;10.50;99.90;;;;;;5087079;28;20041;-79
2021/11/11 12:06:15;;;;;;;0.10;0.10;;;10.40;99.90;;;;;;5087224;28;20041;-84
2021/11/11 12:09:11;;;;;;;0.10;0.10;;;10.40;99.90;;;;;;5088859;28;20052;-84
2021/11/11 12:17:27;;;;;;;0.00;0.00;;;10.40;99.90;;;;;;5086893;28;20052;-84
2021/11/11 12:34:34;;;;;;;0.10;0.10;;;10.40;99.90;;;;;;5086529;28;20099;-84
2021/11/11 12:39:44;;;;;;;0.00;0.00;;;10.40;99.90;;;;;;5120180;28;20067;-84
2021/11/11 12:42:33;;;;;;;0.10;0.10;;;10.50;99.90;;;;;;5086020;28;20047;-80
2021/11/11 12:45:08;;;;;;;0.00;0.00;;;10.50;99.90;;;;;;5069276;28;20037;-80
2021/11/11 12:48:03;;;;;;;0.00;0.00;;;10.50;99.90;;;;;;5069756;28;20079;-80
2021/11/11 12:51:01;;;;;;;0.00;0.00;;;10.50;99.90;;;;;;5086668;28;20091;-82
2021/11/11 12:53:45;;;;;;;0.00;0.00;;;10.50;99.90;;;;;;5086067;28;20492;-85
2021/11/11 12:56:25;;;;;;;0.00;0.00;;;10.50;99.90;;;;;;5108165;28;20447;-85
2021/11/11 12:58:55;;;;;;;0.10;0.10;;;10.50;99.90;;;;;;5073850;28;20045;-84
2021/11/11 13:01:33;;;;;;;0.00;0.00;;;10.50;99.90;;;;;;5102901;28;20071;-80
2021/11/11 13:04:05;;;;;;;0.40;0.40;;;10.50;99.90;;;;;;5107919;28;20044;-84
2021/11/11 13:06:35;;;;;;;0.00;0.00;;;10.50;99.90;;;;;;5090326;28;20051;-80
2021/11/11 13:09:13;;;;;;;0.08;0.08;;;10.60;99.90;;;;;;5090426;28;20041;-83
2021/11/11 13:11:43;;;;;;;0.00;0.00;;;10.60;99.90;;;;;;5126555;28;20120;-80
2021/11/11 13:14:23;;;;;;;0.35;0.35;;;10.60;99.90;;;;;;5140022;28;20127;-80
2021/11/11 13:16:56;;;;;;;0.00;0.00;;;10.70;99.90;;;;;;5123447;28;20048;-84
2021/11/11 13:19:41;;;;;;;1.27;0.20;;;10.70;99.90;;;;;;5122458;28;20036;-80
2021/11/11 13:59:52;;;;;;;0.00;0.00;;;11.00;99.90;;;;;;5090635;28;20068;-85
2021/11/11 16:00:03;;;;;;;0.00;0.00;;;10.40;99.90;;;;;;5106042;28;20053;-81
2021/11/11 16:02:50;;;;;;;0.10;0.10;;;10.40;99.90;;;;;;5108149;28;20044;-81
2021/11/11 16:27:17;;;;;;;0.00;0.00;;;10.20;99.90;;;;;;5093110;28;20064;-87
2021/11/11 16:29:44;;;;;;;0.10;0.10;;;10.20;99.90;;;;;;5073742;28;20649;-87
2021/11/11 16:32:11;;;;;;;0.10;0.10;;;10.30;99.90;;;;;;5107202;28;20040;-86
2021/11/11 16:34:38;;;;;;;0.25;0.25;;;10.20;99.90;;;;;;5090755;28;20052;-87
2021/11/11 16:37:07;;;;;;;0.03;0.03;;;10.20;99.90;;;;;;5091074;28;20040;-88
2021/11/11 16:39:34;;;;;;;0.00;0.00;;;10.20;99.90;;;;;;5090336;28;20033;-87
2021/11/11 16:42:01;;;;;;;0.03;0.03;;;10.20;99.90;;;;;;5072473;28;20098;-88
2021/11/11 16:44:27;;;;;;;0.10;0.10;;;10.20;99.90;;;;;;5106955;28;20044;-87
2021/11/11 16:46:54;;;;;;;0.28;0.15;;;10.10;99.90;;;;;;5074208;28;20036;-87
2021/11/11 16:49:21;;;;;;;0.10;0.10;;;10.20;99.90;;;;;;5074308;28;20108;-88
2021/11/11 16:51:48;;;;;;;0.00;0.00;;;10.10;99.90;;;;;;5073695;28;20504;-87
2021/11/11 16:54:15;;;;;;;0.00;0.00;;;10.10;99.90;;;;;;5089816;28;20408;-86
2021/11/11 16:56:42;;;;;;;0.38;0.15;;;10.10;99.90;;;;;;5089990;28;20037;-86
2021/11/11 16:59:09;;;;;;;0.00;0.00;;;10.10;99.90;;;;;;5073207;28;20103;-85